sensor_id;sensor_type;location;lat;lon;timestamp;pressure;altitude;pressure_sealevel;temperature;humidity
73341;BME280;61578;52.002;5.468;2022-08-03T00:00:08;101455.72;;;19.77;77.94
73341;BME280;61578;52.002;5.468;2022-08-03T00:01:03;101442.25;;;19.67;77.34
73341;BME280;61578;52.002;5.468;2022-08-03T00:01:54;101439.69;;;19.66;77.53
73341;BME280;61578;52.002;5.468;2022-08-03T00:02:45;101454.59;;;19.70;77.47
73341;BME280;61578;52.002;5.468;2022-08-03T00:03:36;101454.59;;;19.70;77.86
73341;BME280;61578;52.002;5.468;2022-08-03T00:04:27;101450.91;;;19.71;77.56
73341;BME280;61578;52.002;5.468;2022-08-03T00:05:18;101454.72;;;19.68;77.76
73341;BME280;61578;52.002;5.468;2022-08-03T00:06:10;101456.56;;;19.68;77.69
73341;BME280;61578;52.002;5.468;2022-08-03T00:07:01;101451.31;;;19.66;77.44
73341;BME280;61578;52.002;5.468;2022-08-03T00:07:52;101434.44;;;19.55;77.88
73341;BME280;61578;52.002;5.468;2022-08-03T00:08:43;101442.97;;;19.60;77.82
73341;BME280;61578;52.002;5.468;2022-08-03T00:09:34;101441.84;;;19.62;77.87
73341;BME280;61578;52.002;5.468;2022-08-03T00:10:25;101446.22;;;19.63;77.78
73341;BME280;61578;52.002;5.468;2022-08-03T00:11:16;101440.69;;;19.55;77.84
73341;BME280;61578;52.002;5.468;2022-08-03T00:12:07;101454.44;;;19.62;77.99
73341;BME280;61578;52.002;5.468;2022-08-03T00:12:58;101427.16;;;19.45;77.78
73341;BME280;61578;52.002;5.468;2022-08-03T00:13:49;101450.19;;;19.59;77.78
73341;BME280;61578;52.002;5.468;2022-08-03T00:14:41;101441.97;;;19.51;77.41
73341;BME280;61578;52.002;5.468;2022-08-03T00:15:32;101440.63;;;19.45;77.75
73341;BME280;61578;52.002;5.468;2022-08-03T00:16:23;101442.66;;;19.43;77.39
73341;BME280;61578;52.002;5.468;2022-08-03T00:17:15;101438.38;;;19.41;77.66
73341;BME280;61578;52.002;5.468;2022-08-03T00:18:07;101431.03;;;19.33;77.99
73341;BME280;61578;52.002;5.468;2022-08-03T00:18:58;101444.75;;;19.40;77.96
73341;BME280;61578;52.002;5.468;2022-08-03T00:19:50;101434.69;;;19.32;78.04
73341;BME280;61578;52.002;5.468;2022-08-03T00:20:41;101434.69;;;19.32;77.78
73341;BME280;61578;52.002;5.468;2022-08-03T00:21:32;101449.16;;;19.41;77.85
73341;BME280;61578;52.002;5.468;2022-08-03T00:22:23;101445.75;;;19.39;78.34
73341;BME280;61578;52.002;5.468;2022-08-03T00:23:14;101438.06;;;19.34;78.31
73341;BME280;61578;52.002;5.468;2022-08-03T00:24:05;101440.38;;;19.39;78.67
73341;BME280;61578;52.002;5.468;2022-08-03T00:24:56;101452.84;;;19.40;78.51
73341;BME280;61578;52.002;5.468;2022-08-03T00:25:47;101423.47;;;19.27;78.41
73341;BME280;61578;52.002;5.468;2022-08-03T00:26:38;101438.06;;;19.34;78.31
73341;BME280;61578;52.002;5.468;2022-08-03T00:27:29;101446.75;;;19.38;78.58
73341;BME280;61578;52.002;5.468;2022-08-03T00:28:20;101441.50;;;19.36;78.30
73341;BME280;61578;52.002;5.468;2022-08-03T00:29:11;101436.22;;;19.35;78.39
73341;BME280;61578;52.002;5.468;2022-08-03T00:30:03;101429.59;;;19.29;78.87
73341;BME280;61578;52.002;5.468;2022-08-03T00:30:55;101429.44;;;19.31;78.61
73341;BME280;61578;52.002;5.468;2022-08-03T00:31:46;101437.41;;;19.32;78.75
73341;BME280;61578;52.002;5.468;2022-08-03T00:32:37;101431.81;;;19.24;79.01
73341;BME280;61578;52.002;5.468;2022-08-03T00:33:28;101420.38;;;19.22;78.35
73341;BME280;61578;52.002;5.468;2022-08-03T00:34:19;101439.09;;;19.33;78.93
73341;BME280;61578;52.002;5.468;2022-08-03T00:35:10;101429.59;;;19.29;79.02
73341;BME280;61578;52.002;5.468;2022-08-03T00:36:01;101435.81;;;19.30;79.22
73341;BME280;61578;52.002;5.468;2022-08-03T00:36:52;101440.94;;;19.33;78.63
73341;BME280;61578;52.002;5.468;2022-08-03T00:37:43;101419.66;;;19.20;78.68
73341;BME280;61578;52.002;5.468;2022-08-03T00:38:34;101410.72;;;19.10;78.90
73341;BME280;61578;52.002;5.468;2022-08-03T00:39:25;101440.34;;;19.29;78.88
73341;BME280;61578;52.002;5.468;2022-08-03T00:40:18;101442.34;;;19.27;78.96
73341;BME280;61578;52.002;5.468;2022-08-03T00:41:10;101437.06;;;19.26;79.38
73341;BME280;61578;52.002;5.468;2022-08-03T00:42:02;101426.75;;;19.21;79.34
73341;BME280;61578;52.002;5.468;2022-08-03T00:42:54;101438.50;;;19.30;79.20
73341;BME280;61578;52.002;5.468;2022-08-03T00:43:47;101440.22;;;19.31;79.29
73341;BME280;61578;52.002;5.468;2022-08-03T00:44:39;101433.66;;;19.24;78.91
73341;BME280;61578;52.002;5.468;2022-08-03T00:45:34;101437.78;;;19.28;78.46
73341;BME280;61578;52.002;5.468;2022-08-03T00:46:27;101437.53;;;19.21;78.40
73341;BME280;61578;52.002;5.468;2022-08-03T00:47:18;101440.63;;;19.26;78.76
73341;BME280;61578;52.002;5.468;2022-08-03T00:48:11;101438.22;;;19.23;78.70
73341;BME280;61578;52.002;5.468;2022-08-03T00:49:02;101422.03;;;19.13;78.90
73341;BME280;61578;52.002;5.468;2022-08-03T00:49:53;101441.75;;;19.24;79.07
73341;BME280;61578;52.002;5.468;2022-08-03T00:50:44;101417.34;;;19.06;79.06
73341;BME280;61578;52.002;5.468;2022-08-03T00:51:37;101419.66;;;19.10;79.76
73341;BME280;61578;52.002;5.468;2022-08-03T00:52:28;101419.06;;;19.07;79.22
73341;BME280;61578;52.002;5.468;2022-08-03T00:53:19;101438.50;;;19.20;79.11
73341;BME280;61578;52.002;5.468;2022-08-03T00:54:11;101439.50;;;19.19;79.19
73341;BME280;61578;52.002;5.468;2022-08-03T00:55:03;101436.66;;;19.21;79.06
73341;BME280;61578;52.002;5.468;2022-08-03T00:55:54;101436.06;;;19.17;79.58
73341;BME280;61578;52.002;5.468;2022-08-03T00:56:45;101433.25;;;19.19;79.55
73341;BME280;61578;52.002;5.468;2022-08-03T00:57:37;101425.03;;;19.10;79.69
73341;BME280;61578;52.002;5.468;2022-08-03T00:58:28;101438.50;;;19.20;79.72
73341;BME280;61578;52.002;5.468;2022-08-03T00:59:20;101425.44;;;19.16;79.33
73341;BME280;61578;52.002;5.468;2022-08-03T01:00:16;101428.72;;;19.09;79.38
73341;BME280;61578;52.002;5.468;2022-08-03T01:01:10;101409.16;;;19.07;79.51
73341;BME280;61578;52.002;5.468;2022-08-03T01:02:01;101432.25;;;19.20;79.16
73341;BME280;61578;52.002;5.468;2022-08-03T01:02:53;101434.97;;;19.20;79.46
73341;BME280;61578;52.002;5.468;2022-08-03T01:03:44;101434.97;;;19.20;79.35
73341;BME280;61578;52.002;5.468;2022-08-03T01:04:35;101419.34;;;19.13;79.51
73341;BME280;61578;52.002;5.468;2022-08-03T01:05:27;101428.00;;;19.17;79.77
73341;BME280;61578;52.002;5.468;2022-08-03T01:06:25;101419.34;;;19.13;79.79
73341;BME280;61578;52.002;5.468;2022-08-03T01:09:11;101409.59;;;19.13;79.55
73341;BME280;61578;52.002;5.468;2022-08-03T01:14:17;101396.94;;;19.03;80.13
73341;BME280;61578;52.002;5.468;2022-08-03T01:18:02;101416.94;;;19.10;79.69
73341;BME280;61578;52.002;5.468;2022-08-03T01:20:21;101429.56;;;19.20;80.04
73341;BME280;61578;52.002;5.468;2022-08-03T01:21:28;101427.59;;;19.22;79.74
73341;BME280;61578;52.002;5.468;2022-08-03T01:26:23;101427.00;;;19.18;80.07
73341;BME280;61578;52.002;5.468;2022-08-03T01:27:50;101431.97;;;19.13;79.96
73341;BME280;61578;52.002;5.468;2022-08-03T01:30:18;101409.41;;;19.04;79.85
73341;BME280;61578;52.002;5.468;2022-08-03T01:31:11;101420.91;;;19.06;79.46
73341;BME280;61578;52.002;5.468;2022-08-03T01:32:12;101420.19;;;19.04;79.85
73341;BME280;61578;52.002;5.468;2022-08-03T01:33:14;101428.00;;;19.07;79.92
73341;BME280;61578;52.002;5.468;2022-08-03T01:34:14;101414.50;;;18.98;80.08
73341;BME280;61578;52.002;5.468;2022-08-03T01:35:12;101434.50;;;19.05;79.86
73341;BME280;61578;52.002;5.468;2022-08-03T01:36:13;101401.47;;;18.93;80.00
73341;BME280;61578;52.002;5.468;2022-08-03T01:37:09;101412.81;;;18.97;80.01
73341;BME280;61578;52.002;5.468;2022-08-03T01:38:07;101423.19;;;19.01;79.97
73341;BME280;61578;52.002;5.468;2022-08-03T01:39:04;101427.41;;;19.04;79.50
73341;BME280;61578;52.002;5.468;2022-08-03T01:40:01;101419.91;;;18.98;79.84
73341;BME280;61578;52.002;5.468;2022-08-03T01:40:56;101424.88;;;19.02;79.90
73341;BME280;61578;52.002;5.468;2022-08-03T01:42:03;101407.13;;;18.90;79.59
73341;BME280;61578;52.002;5.468;2022-08-03T01:43:01;101405.31;;;18.91;80.38
73341;BME280;61578;52.002;5.468;2022-08-03T01:43:57;101421.47;;;19.00;80.26
73341;BME280;61578;52.002;5.468;2022-08-03T01:44:52;101421.59;;;18.99;79.94
73341;BME280;61578;52.002;5.468;2022-08-03T01:45:47;101412.94;;;18.95;80.64
73341;BME280;61578;52.002;5.468;2022-08-03T01:46:40;101412.09;;;18.95;80.27
73341;BME280;61578;52.002;5.468;2022-08-03T01:47:33;101419.75;;;18.99;80.33
73341;BME280;61578;52.002;5.468;2022-08-03T01:48:27;101401.16;;;18.87;80.29
73341;BME280;61578;52.002;5.468;2022-08-03T01:49:18;101425.28;;;18.98;80.04
73341;BME280;61578;52.002;5.468;2022-08-03T01:50:12;101404.72;;;18.87;80.27
73341;BME280;61578;52.002;5.468;2022-08-03T01:51:07;101387.56;;;18.79;80.30
73341;BME280;61578;52.002;5.468;2022-08-03T01:52:03;101411.41;;;18.93;80.70
73341;BME280;61578;52.002;5.468;2022-08-03T01:52:57;101409.53;;;18.93;80.44
73341;BME280;61578;52.002;5.468;2022-08-03T01:53:50;101413.06;;;18.94;80.65
73341;BME280;61578;52.002;5.468;2022-08-03T01:54:48;101406.28;;;18.90;80.70
73341;BME280;61578;52.002;5.468;2022-08-03T01:55:45;101417.19;;;18.98;79.90
73341;BME280;61578;52.002;5.468;2022-08-03T01:56:39;101415.38;;;18.98;80.18
73341;BME280;61578;52.002;5.468;2022-08-03T01:57:35;101379.75;;;18.75;79.96
73341;BME280;61578;52.002;5.468;2022-08-03T01:58:29;101398.75;;;18.84;80.21
73341;BME280;61578;52.002;5.468;2022-08-03T01:59:24;101416.47;;;18.96;80.25
73341;BME280;61578;52.002;5.468;2022-08-03T02:00:16;101414.66;;;18.96;80.63
73341;BME280;61578;52.002;5.468;2022-08-03T02:01:10;101418.47;;;18.94;80.44
73341;BME280;61578;52.002;5.468;2022-08-03T02:02:04;101415.75;;;18.94;80.58
73341;BME280;61578;52.002;5.468;2022-08-03T02:03:00;101411.66;;;18.90;80.51
73341;BME280;61578;52.002;5.468;2022-08-03T02:03:58;101416.78;;;18.93;80.35
73341;BME280;61578;52.002;5.468;2022-08-03T02:04:53;101415.94;;;18.92;80.28
73341;BME280;61578;52.002;5.468;2022-08-03T02:05:49;101406.81;;;18.84;79.99
73341;BME280;61578;52.002;5.468;2022-08-03T02:06:45;101403.44;;;18.82;80.40
73341;BME280;61578;52.002;5.468;2022-08-03T02:07:44;101411.22;;;18.85;80.02
73341;BME280;61578;52.002;5.468;2022-08-03T02:08:41;101405.97;;;18.83;80.32
73341;BME280;61578;52.002;5.468;2022-08-03T02:09:38;101393.94;;;18.78;80.16
73341;BME280;61578;52.002;5.468;2022-08-03T02:10:34;101386.13;;;18.74;80.16
73341;BME280;61578;52.002;5.468;2022-08-03T02:11:30;101395.63;;;18.79;80.68
73341;BME280;61578;52.002;5.468;2022-08-03T02:12:25;101414.75;;;18.85;80.77
73341;BME280;61578;52.002;5.468;2022-08-03T02:13:19;101391.63;;;18.73;80.47
73341;BME280;61578;52.002;5.468;2022-08-03T02:14:14;101398.31;;;18.79;80.37
73341;BME280;61578;52.002;5.468;2022-08-03T02:15:08;101403.44;;;18.82;80.64
73341;BME280;61578;52.002;5.468;2022-08-03T02:16:04;101382.41;;;18.66;80.57
73341;BME280;61578;52.002;5.468;2022-08-03T02:16:58;101401.00;;;18.79;80.38
73341;BME280;61578;52.002;5.468;2022-08-03T02:17:52;101398.31;;;18.69;80.75
73341;BME280;61578;52.002;5.468;2022-08-03T02:18:46;101399.44;;;18.76;80.42
73341;BME280;61578;52.002;5.468;2022-08-03T02:19:42;101415.72;;;18.74;80.29
73341;BME280;61578;52.002;5.468;2022-08-03T02:20:36;101406.66;;;18.75;79.80
73341;BME280;61578;52.002;5.468;2022-08-03T02:21:32;101390.38;;;18.67;79.99
73341;BME280;61578;52.002;5.468;2022-08-03T02:22:28;101411.50;;;18.72;80.05
73341;BME280;61578;52.002;5.468;2022-08-03T02:23:21;101383.34;;;18.55;79.84
73341;BME280;61578;52.002;5.468;2022-08-03T02:24:12;101412.59;;;18.69;80.17
73341;BME280;61578;52.002;5.468;2022-08-03T02:25:03;101399.69;;;18.63;80.36
73341;BME280;61578;52.002;5.468;2022-08-03T02:26:01;101411.28;;;18.64;80.62
73341;BME280;61578;52.002;5.468;2022-08-03T02:26:58;101418.97;;;18.68;81.09
73341;BME280;61578;52.002;5.468;2022-08-03T02:27:55;101410.91;;;18.68;80.50
73341;BME280;61578;52.002;5.468;2022-08-03T02:28:55;101404.06;;;18.64;79.94
73341;BME280;61578;52.002;5.468;2022-08-03T02:30:04;101418.25;;;18.66;80.24
73341;BME280;61578;52.002;5.468;2022-08-03T02:31:04;101417.66;;;18.63;80.25
73341;BME280;61578;52.002;5.468;2022-08-03T02:32:02;101416.84;;;18.62;80.17
73341;BME280;61578;52.002;5.468;2022-08-03T02:32:57;101409.75;;;18.61;80.70
73341;BME280;61578;52.002;5.468;2022-08-03T02:34:00;101408.03;;;18.60;80.57
73341;BME280;61578;52.002;5.468;2022-08-03T02:34:55;101405.63;;;18.57;81.15
73341;BME280;61578;52.002;5.468;2022-08-03T02:35:51;101402.94;;;18.57;80.66
73341;BME280;61578;52.002;5.468;2022-08-03T02:36:48;101413.56;;;18.59;80.68
73341;BME280;61578;52.002;5.468;2022-08-03T02:37:47;101410.09;;;18.57;80.53
73341;BME280;61578;52.002;5.468;2022-08-03T02:38:44;101405.28;;;18.51;80.96
73341;BME280;61578;52.002;5.468;2022-08-03T02:39:43;101411.34;;;18.53;80.98
73341;BME280;61578;52.002;5.468;2022-08-03T02:40:39;101406.28;;;18.50;80.55
73341;BME280;61578;52.002;5.468;2022-08-03T02:41:41;101410.66;;;18.51;81.17
73341;BME280;61578;52.002;5.468;2022-08-03T02:42:38;101414.22;;;18.51;81.02
73341;BME280;61578;52.002;5.468;2022-08-03T02:43:34;101384.97;;;18.37;81.05
73341;BME280;61578;52.002;5.468;2022-08-03T02:44:30;101392.78;;;18.40;80.89
73341;BME280;61578;52.002;5.468;2022-08-03T02:45:27;101387.13;;;18.43;81.52
73341;BME280;61578;52.002;5.468;2022-08-03T02:46:23;101386.81;;;18.36;80.98
73341;BME280;61578;52.002;5.468;2022-08-03T02:47:19;101400.44;;;18.45;80.88
73341;BME280;61578;52.002;5.468;2022-08-03T02:48:17;101384.59;;;18.42;81.26
73341;BME280;61578;52.002;5.468;2022-08-03T02:49:15;101401.63;;;18.52;81.26
73341;BME280;61578;52.002;5.468;2022-08-03T02:50:12;101401.75;;;18.50;80.68
73341;BME280;61578;52.002;5.468;2022-08-03T02:51:06;101397.47;;;18.48;81.10
73341;BME280;61578;52.002;5.468;2022-08-03T02:52:00;101398.34;;;18.48;81.10
73341;BME280;61578;52.002;5.468;2022-08-03T02:52:54;101397.09;;;18.52;81.18
73341;BME280;61578;52.002;5.468;2022-08-03T02:53:49;101391.13;;;18.49;81.53
73341;BME280;61578;52.002;5.468;2022-08-03T02:54:43;101375.81;;;18.39;81.65
73341;BME280;61578;52.002;5.468;2022-08-03T02:55:38;101391.97;;;18.49;81.37
73341;BME280;61578;52.002;5.468;2022-08-03T02:56:33;101390.41;;;18.47;81.09
73341;BME280;61578;52.002;5.468;2022-08-03T02:57:27;101397.09;;;18.52;81.12
73341;BME280;61578;52.002;5.468;2022-08-03T02:58:23;101366.16;;;18.37;80.73
73341;BME280;61578;52.002;5.468;2022-08-03T02:59:17;101365.56;;;18.33;81.17
73341;BME280;61578;52.002;5.468;2022-08-03T03:00:12;101384.75;;;18.50;80.98
73341;BME280;61578;52.002;5.468;2022-08-03T03:01:05;101384.28;;;18.45;80.88
73341;BME280;61578;52.002;5.468;2022-08-03T03:01:59;101397.91;;;18.53;80.87
73341;BME280;61578;52.002;5.468;2022-08-03T03:02:53;101385.88;;;18.47;80.48
73341;BME280;61578;52.002;5.468;2022-08-03T03:03:48;101368.25;;;18.33;80.72
73341;BME280;61578;52.002;5.468;2022-08-03T03:04:42;101372.69;;;18.44;80.82
73341;BME280;61578;52.002;5.468;2022-08-03T03:05:34;101357.06;;;18.28;80.82
73341;BME280;61578;52.002;5.468;2022-08-03T03:06:27;101366.63;;;18.42;81.58
73341;BME280;61578;52.002;5.468;2022-08-03T03:07:20;101384.34;;;18.54;81.82
73341;BME280;61578;52.002;5.468;2022-08-03T03:08:13;101386.03;;;18.55;81.99
73341;BME280;61578;52.002;5.468;2022-08-03T03:09:06;101382.38;;;18.56;80.79
73341;BME280;61578;52.002;5.468;2022-08-03T03:09:59;101352.59;;;18.38;81.11
73341;BME280;61578;52.002;5.468;2022-08-03T03:10:54;101364.63;;;18.44;81.15
73341;BME280;61578;52.002;5.468;2022-08-03T03:11:50;101359.66;;;18.39;81.24
73341;BME280;61578;52.002;5.468;2022-08-03T03:12:45;101376.34;;;18.43;81.20
73341;BME280;61578;52.002;5.468;2022-08-03T03:13:42;101358.81;;;18.39;81.24
73341;BME280;61578;52.002;5.468;2022-08-03T03:14:37;101365.78;;;18.42;81.41
73341;BME280;61578;52.002;5.468;2022-08-03T03:15:30;101389.16;;;18.51;81.14
73341;BME280;61578;52.002;5.468;2022-08-03T03:16:29;101387.16;;;18.53;80.70
73341;BME280;61578;52.002;5.468;2022-08-03T03:17:22;101389.16;;;18.51;80.56
73341;BME280;61578;52.002;5.468;2022-08-03T03:18:16;101362.75;;;18.35;80.28
73341;BME280;61578;52.002;5.468;2022-08-03T03:19:10;101387.56;;;18.48;80.78
73341;BME280;61578;52.002;5.468;2022-08-03T03:20:05;101378.63;;;18.38;81.27
73341;BME280;61578;52.002;5.468;2022-08-03T03:21:00;101380.88;;;18.43;81.42
73341;BME280;61578;52.002;5.468;2022-08-03T03:21:54;101388.81;;;18.44;81.41
73341;BME280;61578;52.002;5.468;2022-08-03T03:22:49;101382.88;;;18.41;81.59
73341;BME280;61578;52.002;5.468;2022-08-03T03:23:42;101388.81;;;18.44;81.18
73341;BME280;61578;52.002;5.468;2022-08-03T03:24:35;101378.88;;;18.35;81.27
73341;BME280;61578;52.002;5.468;2022-08-03T03:25:30;101391.50;;;18.44;81.16
73341;BME280;61578;52.002;5.468;2022-08-03T03:26:22;101382.59;;;18.44;80.62
73341;BME280;61578;52.002;5.468;2022-08-03T03:27:14;101393.22;;;18.45;80.93
73341;BME280;61578;52.002;5.468;2022-08-03T03:28:05;101377.63;;;18.39;81.39
73341;BME280;61578;52.002;5.468;2022-08-03T03:28:57;101383.00;;;18.39;80.87
73341;BME280;61578;52.002;5.468;2022-08-03T03:29:49;101374.50;;;18.34;81.93
73341;BME280;61578;52.002;5.468;2022-08-03T03:30:41;101341.63;;;18.21;81.20
73341;BME280;61578;52.002;5.468;2022-08-03T03:31:32;101376.09;;;18.46;81.32
73341;BME280;61578;52.002;5.468;2022-08-03T03:32:31;101383.19;;;18.47;81.60
73341;BME280;61578;52.002;5.468;2022-08-03T03:33:22;101362.34;;;18.39;81.09
73341;BME280;61578;52.002;5.468;2022-08-03T03:34:14;101368.47;;;18.42;81.20
73341;BME280;61578;52.002;5.468;2022-08-03T03:35:06;101389.16;;;18.51;81.46
73341;BME280;61578;52.002;5.468;2022-08-03T03:36:00;101383.78;;;18.51;81.59
73341;BME280;61578;52.002;5.468;2022-08-03T03:36:51;101388.28;;;18.50;80.92
73341;BME280;61578;52.002;5.468;2022-08-03T03:37:42;101365.19;;;18.38;80.86
73341;BME280;61578;52.002;5.468;2022-08-03T03:38:35;101379.78;;;18.45;81.23
73341;BME280;61578;52.002;5.468;2022-08-03T03:39:26;101382.34;;;18.47;81.46
73341;BME280;61578;52.002;5.468;2022-08-03T03:40:17;101376.34;;;18.43;81.10
73341;BME280;61578;52.002;5.468;2022-08-03T03:41:09;101352.69;;;18.27;81.11
73341;BME280;61578;52.002;5.468;2022-08-03T03:42:01;101359.63;;;18.30;80.95
73341;BME280;61578;52.002;5.468;2022-08-03T03:42:53;101364.03;;;18.31;80.77
73341;BME280;61578;52.002;5.468;2022-08-03T03:43:44;101373.81;;;18.32;81.18
73341;BME280;61578;52.002;5.468;2022-08-03T03:44:35;101382.28;;;18.37;80.90
73341;BME280;61578;52.002;5.468;2022-08-03T03:45:26;101378.88;;;18.35;81.16
73341;BME280;61578;52.002;5.468;2022-08-03T03:46:21;101370.38;;;18.30;81.69
73341;BME280;61578;52.002;5.468;2022-08-03T03:47:13;101387.41;;;18.40;81.67
73341;BME280;61578;52.002;5.468;2022-08-03T03:48:04;101348.97;;;18.19;81.43
73341;BME280;61578;52.002;5.468;2022-08-03T03:48:56;101362.44;;;18.28;81.19
73341;BME280;61578;52.002;5.468;2022-08-03T03:49:47;101377.03;;;18.35;81.05
73341;BME280;61578;52.002;5.468;2022-08-03T03:50:38;101379.88;;;18.34;80.82
73341;BME280;61578;52.002;5.468;2022-08-03T03:51:32;101381.31;;;18.38;80.82
73341;BME280;61578;52.002;5.468;2022-08-03T03:52:24;101363.13;;;18.21;80.70
73341;BME280;61578;52.002;5.468;2022-08-03T03:53:14;101375.16;;;18.26;80.92
73341;BME280;61578;52.002;5.468;2022-08-03T03:54:05;101359.59;;;18.20;81.28
73341;BME280;61578;52.002;5.468;2022-08-03T03:54:57;101354.59;;;18.16;81.38
73341;BME280;61578;52.002;5.468;2022-08-03T03:55:48;101374.31;;;18.26;81.39
73341;BME280;61578;52.002;5.468;2022-08-03T03:56:41;101386.94;;;18.35;81.82
73341;BME280;61578;52.002;5.468;2022-08-03T03:57:33;101372.63;;;18.25;81.76
73341;BME280;61578;52.002;5.468;2022-08-03T03:58:24;101380.00;;;18.32;81.81
73341;BME280;61578;52.002;5.468;2022-08-03T03:59:15;101374.91;;;18.29;81.31
73341;BME280;61578;52.002;5.468;2022-08-03T04:00:07;101369.06;;;18.24;81.61
73341;BME280;61578;52.002;5.468;2022-08-03T04:00:58;101388.78;;;18.34;81.27
73341;BME280;61578;52.002;5.468;2022-08-03T04:01:50;101395.00;;;18.35;81.29
73341;BME280;61578;52.002;5.468;2022-08-03T04:02:42;101384.56;;;18.32;81.59
73341;BME280;61578;52.002;5.468;2022-08-03T04:03:34;101375.44;;;18.23;81.11
73341;BME280;61578;52.002;5.468;2022-08-03T04:04:25;101373.88;;;18.21;80.87
73341;BME280;61578;52.002;5.468;2022-08-03T04:05:35;101391.91;;;18.30;81.12
73341;BME280;61578;52.002;5.468;2022-08-03T04:06:46;101395.69;;;18.27;80.95
73341;BME280;61578;52.002;5.468;2022-08-03T04:08:06;101388.63;;;18.26;81.21
73341;BME280;61578;52.002;5.468;2022-08-03T04:09:19;101382.94;;;18.20;81.11
73341;BME280;61578;52.002;5.468;2022-08-03T04:10:32;101384.78;;;18.19;81.41
73341;BME280;61578;52.002;5.468;2022-08-03T04:11:53;101377.81;;;18.17;81.92
73341;BME280;61578;52.002;5.468;2022-08-03T04:12:50;101391.56;;;18.23;81.31
73341;BME280;61578;52.002;5.468;2022-08-03T04:13:50;101370.56;;;18.08;81.37
73341;BME280;61578;52.002;5.468;2022-08-03T04:14:47;101387.03;;;18.24;81.43
73341;BME280;61578;52.002;5.468;2022-08-03T04:15:42;101377.81;;;18.17;82.04
73341;BME280;61578;52.002;5.468;2022-08-03T04:16:39;101374.28;;;18.16;81.61
73341;BME280;61578;52.002;5.468;2022-08-03T04:17:34;101376.84;;;18.18;81.82
73341;BME280;61578;52.002;5.468;2022-08-03T04:18:31;101392.03;;;18.28;82.13
73341;BME280;61578;52.002;5.468;2022-08-03T04:19:44;101393.44;;;18.32;81.49
73341;BME280;61578;52.002;5.468;2022-08-03T04:20:43;101389.34;;;18.28;81.53
73341;BME280;61578;52.002;5.468;2022-08-03T04:21:42;101383.97;;;18.28;81.76
73341;BME280;61578;52.002;5.468;2022-08-03T04:22:38;101389.34;;;18.28;81.92
73341;BME280;61578;52.002;5.468;2022-08-03T04:23:33;101391.16;;;18.28;81.78
73341;BME280;61578;52.002;5.468;2022-08-03T04:24:33;101384.47;;;18.22;81.71
73341;BME280;61578;52.002;5.468;2022-08-03T04:25:31;101383.09;;;18.28;82.00
73341;BME280;61578;52.002;5.468;2022-08-03T04:26:26;101390.06;;;18.30;81.58
73341;BME280;61578;52.002;5.468;2022-08-03T04:27:27;101381.66;;;18.24;81.41
73341;BME280;61578;52.002;5.468;2022-08-03T04:28:22;101392.19;;;18.36;81.65
73341;BME280;61578;52.002;5.468;2022-08-03T04:29:14;101366.94;;;18.18;81.08
73341;BME280;61578;52.002;5.468;2022-08-03T04:30:07;101388.53;;;18.37;81.81
73341;BME280;61578;52.002;5.468;2022-08-03T04:31:02;101386.50;;;18.30;81.72
73341;BME280;61578;52.002;5.468;2022-08-03T04:31:58;101396.03;;;18.44;81.76
73341;BME280;61578;52.002;5.468;2022-08-03T04:32:50;101381.44;;;18.36;81.62
73341;BME280;61578;52.002;5.468;2022-08-03T04:33:43;101377.91;;;18.36;81.95
73341;BME280;61578;52.002;5.468;2022-08-03T04:34:36;101382.88;;;18.41;81.51
73341;BME280;61578;52.002;5.468;2022-08-03T04:35:31;101402.00;;;18.47;81.48
73341;BME280;61578;52.002;5.468;2022-08-03T04:36:26;101407.84;;;18.52;81.99
73341;BME280;61578;52.002;5.468;2022-08-03T04:37:42;101403.28;;;18.53;81.70
73341;BME280;61578;52.002;5.468;2022-08-03T04:39:52;101368.41;;;18.32;81.77
73341;BME280;61578;52.002;5.468;2022-08-03T04:40:47;101398.94;;;18.52;81.54
73341;BME280;61578;52.002;5.468;2022-08-03T04:41:40;101387.13;;;18.43;81.57
73341;BME280;61578;52.002;5.468;2022-08-03T04:42:34;101414.28;;;18.61;81.49
73341;BME280;61578;52.002;5.468;2022-08-03T04:43:31;101411.59;;;18.61;81.67
73341;BME280;61578;52.002;5.468;2022-08-03T04:44:25;101401.94;;;18.58;81.87
73341;BME280;61578;52.002;5.468;2022-08-03T04:45:20;101336.38;;;18.19;82.05
73341;BME280;61578;52.002;5.468;2022-08-03T04:46:13;101397.41;;;18.59;81.78
73341;BME280;61578;52.002;5.468;2022-08-03T04:47:05;101406.63;;;18.66;81.58
73341;BME280;61578;52.002;5.468;2022-08-03T04:47:58;101354.44;;;18.38;81.88
73341;BME280;61578;52.002;5.468;2022-08-03T04:48:50;101395.16;;;18.64;81.82
73341;BME280;61578;52.002;5.468;2022-08-03T04:49:42;101408.22;;;18.68;81.88
73341;BME280;61578;52.002;5.468;2022-08-03T04:50:34;101399.41;;;18.66;81.92
73341;BME280;61578;52.002;5.468;2022-08-03T04:51:26;101376.97;;;18.56;81.87
73341;BME280;61578;52.002;5.468;2022-08-03T04:52:18;101400.56;;;18.73;81.40
73341;BME280;61578;52.002;5.468;2022-08-03T04:53:09;101403.97;;;18.75;81.53
73341;BME280;61578;52.002;5.468;2022-08-03T04:54:01;101385.84;;;18.68;81.48
73341;BME280;61578;52.002;5.468;2022-08-03T04:54:52;101389.50;;;18.67;81.34
73341;BME280;61578;52.002;5.468;2022-08-03T04:55:43;101393.34;;;18.74;81.30
73341;BME280;61578;52.002;5.468;2022-08-03T04:56:34;101381.00;;;18.62;81.48
73341;BME280;61578;52.002;5.468;2022-08-03T04:57:25;101395.19;;;18.73;81.18
73341;BME280;61578;52.002;5.468;2022-08-03T04:58:16;101395.78;;;18.77;81.00
73341;BME280;61578;52.002;5.468;2022-08-03T04:59:07;101373.81;;;18.62;81.25
73341;BME280;61578;52.002;5.468;2022-08-03T04:59:59;101407.13;;;18.81;81.24
73341;BME280;61578;52.002;5.468;2022-08-03T05:00:50;101408.81;;;18.82;81.17
73341;BME280;61578;52.002;5.468;2022-08-03T05:01:41;101405.28;;;18.81;81.05